sensor_id;sensor_type;location;lat;lon;timestamp;pressure;altitude;pressure_sealevel;temperature;humidity
38852;BME280;24605;50.092;9.182;2023-04-28T00:00:57;97772.19;;;11.66;59.65
38852;BME280;24605;50.092;9.182;2023-04-28T00:03:24;97763.69;;;11.49;60.06
38852;BME280;24605;50.092;9.182;2023-04-28T00:05:51;97765.47;;;11.49;60.47
38852;BME280;24605;50.092;9.182;2023-04-28T00:08:18;97760.00;;;11.58;60.37
38852;BME280;24605;50.092;9.182;2023-04-28T00:10:47;97741.59;;;11.58;60.28
38852;BME280;24605;50.092;9.182;2023-04-28T00:13:13;97755.44;;;11.67;59.68
38852;BME280;24605;50.092;9.182;2023-04-28T00:15:40;97757.09;;;11.68;59.59
38852;BME280;24605;50.092;9.182;2023-04-28T00:18:06;97753.19;;;11.64;59.93
38852;BME280;24605;50.092;9.182;2023-04-28T00:20:32;97750.19;;;11.67;59.30
38852;BME280;24605;50.092;9.182;2023-04-28T00:22:59;97751.63;;;11.70;59.32
38852;BME280;24605;50.092;9.182;2023-04-28T00:25:25;97745.19;;;11.72;58.97
38852;BME280;24605;50.092;9.182;2023-04-28T00:27:53;97736.25;;;11.67;59.58
38852;BME280;24605;50.092;9.182;2023-04-28T00:30:20;97731.63;;;11.69;59.49
38852;BME280;24605;50.092;9.182;2023-04-28T00:32:47;97727.47;;;11.74;59.31
38852;BME280;24605;50.092;9.182;2023-04-28T00:35:13;97718.78;;;11.59;59.66
38852;BME280;24605;50.092;9.182;2023-04-28T00:37:40;97730.56;;;11.63;59.94
38852;BME280;24605;50.092;9.182;2023-04-28T00:40:07;97730.44;;;11.41;60.29
38852;BME280;24605;50.092;9.182;2023-04-28T00:42:34;97721.31;;;11.52;60.16
38852;BME280;24605;50.092;9.182;2023-04-28T00:45:02;97716.06;;;11.52;59.90
38852;BME280;24605;50.092;9.182;2023-04-28T00:47:30;97715.91;;;11.54;60.19
38852;BME280;24605;50.092;9.182;2023-04-28T00:49:58;97708.63;;;11.56;59.95
38852;BME280;24605;50.092;9.182;2023-04-28T00:52:25;97701.94;;;11.53;60.04
38852;BME280;24605;50.092;9.182;2023-04-28T00:54:51;97703.41;;;11.41;60.75
38852;BME280;24605;50.092;9.182;2023-04-28T00:57:18;97691.16;;;11.33;60.38
38852;BME280;24605;50.092;9.182;2023-04-28T00:59:44;97700.84;;;11.33;60.51
38852;BME280;24605;50.092;9.182;2023-04-28T01:02:13;97693.00;;;11.33;60.71
38852;BME280;24605;50.092;9.182;2023-04-28T01:04:42;97701.22;;;11.29;60.58
38852;BME280;24605;50.092;9.182;2023-04-28T01:07:10;97703.00;;;11.29;60.88
38852;BME280;24605;50.092;9.182;2023-04-28T01:09:36;97680.13;;;11.38;60.00
38852;BME280;24605;50.092;9.182;2023-04-28T01:12:03;97683.84;;;11.43;60.19
38852;BME280;24605;50.092;9.182;2023-04-28T01:14:31;97676.50;;;11.39;60.26
38852;BME280;24605;50.092;9.182;2023-04-28T01:16:58;97681.38;;;11.42;60.22
38852;BME280;24605;50.092;9.182;2023-04-28T01:19:26;97676.66;;;11.37;60.83
38852;BME280;24605;50.092;9.182;2023-04-28T01:21:53;97670.97;;;11.34;60.36
38852;BME280;24605;50.092;9.182;2023-04-28T01:24:21;97664.13;;;11.33;60.33
38852;BME280;24605;50.092;9.182;2023-04-28T01:26:48;97668.44;;;11.40;60.03
38852;BME280;24605;50.092;9.182;2023-04-28T01:29:14;97666.91;;;11.31;60.48
38852;BME280;24605;50.092;9.182;2023-04-28T01:31:41;97665.28;;;11.30;60.35
38852;BME280;24605;50.092;9.182;2023-04-28T01:34:07;97663.75;;;11.36;60.37
38852;BME280;24605;50.092;9.182;2023-04-28T01:36:34;97652.44;;;11.35;60.29
38852;BME280;24605;50.092;9.182;2023-04-28T01:39:00;97651.78;;;11.33;60.02
38852;BME280;24605;50.092;9.182;2023-04-28T01:41:29;97649.53;;;11.30;60.36
38852;BME280;24605;50.092;9.182;2023-04-28T01:43:58;97658.88;;;11.33;60.33
38852;BME280;24605;50.092;9.182;2023-04-28T01:46:25;97654.31;;;11.26;60.36
38852;BME280;24605;50.092;9.182;2023-04-28T01:48:51;97649.81;;;11.35;60.28
38852;BME280;24605;50.092;9.182;2023-04-28T01:51:18;97644.19;;;11.38;60.70
38852;BME280;24605;50.092;9.182;2023-04-28T01:53:44;97641.59;;;11.23;60.68
38852;BME280;24605;50.092;9.182;2023-04-28T01:56:10;97639.84;;;11.31;61.21
38852;BME280;24605;50.092;9.182;2023-04-28T01:58:38;97600.59;;;11.07;60.93
38852;BME280;24605;50.092;9.182;2023-04-28T02:01:05;97627.19;;;11.19;60.98
38852;BME280;24605;50.092;9.182;2023-04-28T02:03:31;97620.94;;;11.20;60.83
38852;BME280;24605;50.092;9.182;2023-04-28T02:05:58;97622.03;;;11.26;60.91
38852;BME280;24605;50.092;9.182;2023-04-28T02:08:24;97621.84;;;11.27;60.79
38852;BME280;24605;50.092;9.182;2023-04-28T02:10:51;97620.75;;;11.22;61.74
38852;BME280;24605;50.092;9.182;2023-04-28T02:13:17;97616.78;;;11.26;61.34
38852;BME280;24605;50.092;9.182;2023-04-28T02:15:45;97617.31;;;11.21;61.68
38852;BME280;24605;50.092;9.182;2023-04-28T02:18:11;97614.97;;;11.26;61.56
38852;BME280;24605;50.092;9.182;2023-04-28T02:20:38;97609.91;;;11.10;61.75
38852;BME280;24605;50.092;9.182;2023-04-28T02:23:04;97605.28;;;11.12;61.75
38852;BME280;24605;50.092;9.182;2023-04-28T02:25:31;97609.91;;;11.10;61.78
38852;BME280;24605;50.092;9.182;2023-04-28T02:27:58;97610.69;;;11.25;61.48
38852;BME280;24605;50.092;9.182;2023-04-28T02:30:24;97614.78;;;11.28;61.23
38852;BME280;24605;50.092;9.182;2023-04-28T02:32:52;97605.28;;;11.27;61.90
38852;BME280;24605;50.092;9.182;2023-04-28T02:35:18;97605.28;;;11.27;62.01
38852;BME280;24605;50.092;9.182;2023-04-28T02:37:45;97607.63;;;11.22;62.09
38852;BME280;24605;50.092;9.182;2023-04-28T02:40:12;97620.03;;;11.28;62.03
38852;BME280;24605;50.092;9.182;2023-04-28T02:42:38;97613.97;;;11.27;62.41
38852;BME280;24605;50.092;9.182;2023-04-28T02:45:05;97608.47;;;11.22;63.97
38852;BME280;24605;50.092;9.182;2023-04-28T02:47:32;97620.41;;;11.40;69.08
38852;BME280;24605;50.092;9.182;2023-04-28T02:50:00;97616.03;;;11.02;70.28
38852;BME280;24605;50.092;9.182;2023-04-28T02:52:27;97616.97;;;11.09;74.01
38852;BME280;24605;50.092;9.182;2023-04-28T02:54:53;97624.78;;;10.79;77.23
38852;BME280;24605;50.092;9.182;2023-04-28T02:57:21;97621.06;;;10.74;80.29
38852;BME280;24605;50.092;9.182;2023-04-28T02:59:48;97611.13;;;10.69;83.35
38852;BME280;24605;50.092;9.182;2023-04-28T03:02:15;97588.78;;;10.35;87.79
38852;BME280;24605;50.092;9.182;2023-04-28T03:04:41;97610.53;;;10.59;88.79
38852;BME280;24605;50.092;9.182;2023-04-28T03:07:09;97609.22;;;10.63;88.71
38852;BME280;24605;50.092;9.182;2023-04-28T03:09:35;97613.94;;;10.44;92.83
38852;BME280;24605;50.092;9.182;2023-04-28T03:12:02;97612.31;;;10.43;93.51
38852;BME280;24605;50.092;9.182;2023-04-28T03:14:29;97599.25;;;10.35;95.43
38852;BME280;24605;50.092;9.182;2023-04-28T03:16:55;97594.84;;;10.35;96.15
38852;BME280;24605;50.092;9.182;2023-04-28T03:19:22;97587.31;;;10.32;98.86
38852;BME280;24605;50.092;9.182;2023-04-28T03:21:48;97548.22;;;10.08;100.00
38852;BME280;24605;50.092;9.182;2023-04-28T03:24:16;97579.00;;;10.29;100.00
38852;BME280;24605;50.092;9.182;2023-04-28T03:26:42;97580.41;;;10.16;100.00
38852;BME280;24605;50.092;9.182;2023-04-28T03:29:09;97577.25;;;10.21;100.00
38852;BME280;24605;50.092;9.182;2023-04-28T03:31:35;97581.78;;;10.27;98.44
38852;BME280;24605;50.092;9.182;2023-04-28T03:34:02;97574.09;;;10.26;97.79
38852;BME280;24605;50.092;9.182;2023-04-28T03:36:28;97570.03;;;10.23;97.85
38852;BME280;24605;50.092;9.182;2023-04-28T03:38:55;97562.44;;;10.13;99.94
38852;BME280;24605;50.092;9.182;2023-04-28T03:41:22;97562.19;;;10.00;99.12
38852;BME280;24605;50.092;9.182;2023-04-28T03:43:49;97563.16;;;9.99;100.00
38852;BME280;24605;50.092;9.182;2023-04-28T03:46:16;97560.22;;;10.02;99.56
38852;BME280;24605;50.092;9.182;2023-04-28T03:48:42;97576.03;;;9.85;100.00
38852;BME280;24605;50.092;9.182;2023-04-28T03:51:10;97558.00;;;9.91;100.00
38852;BME280;24605;50.092;9.182;2023-04-28T03:53:36;97564.91;;;9.83;100.00
38852;BME280;24605;50.092;9.182;2023-04-28T03:56:03;97568.19;;;9.85;100.00
38852;BME280;24605;50.092;9.182;2023-04-28T03:58:31;97568.69;;;9.81;100.00
38852;BME280;24605;50.092;9.182;2023-04-28T04:00:58;97574.88;;;9.88;100.00
38852;BME280;24605;50.092;9.182;2023-04-28T04:03:25;97572.31;;;10.03;100.00
38852;BME280;24605;50.092;9.182;2023-04-28T04:05:51;97557.53;;;9.87;100.00
38852;BME280;24605;50.092;9.182;2023-04-28T04:08:19;97528.25;;;9.83;100.00
38852;BME280;24605;50.092;9.182;2023-04-28T04:10:45;97539.91;;;10.04;100.00
38852;BME280;24605;50.092;9.182;2023-04-28T04:13:12;97545.38;;;9.94;100.00
38852;BME280;24605;50.092;9.182;2023-04-28T04:15:40;97539.38;;;9.85;100.00
38852;BME280;24605;50.092;9.182;2023-04-28T04:18:06;97529.97;;;9.76;100.00
38852;BME280;24605;50.092;9.182;2023-04-28T04:20:33;97518.31;;;9.79;100.00
38852;BME280;24605;50.092;9.182;2023-04-28T04:22:59;97521.97;;;9.93;100.00
38852;BME280;24605;50.092;9.182;2023-04-28T04:25:27;97509.09;;;9.83;100.00
38852;BME280;24605;50.092;9.182;2023-04-28T04:27:54;97526.88;;;9.96;100.00
38852;BME280;24605;50.092;9.182;2023-04-28T04:30:20;97527.63;;;9.81;100.00
38852;BME280;24605;50.092;9.182;2023-04-28T04:32:48;97521.53;;;9.89;100.00
38852;BME280;24605;50.092;9.182;2023-04-28T04:35:15;97517.31;;;9.80;100.00
38852;BME280;24605;50.092;9.182;2023-04-28T04:37:41;97524.25;;;9.72;100.00
38852;BME280;24605;50.092;9.182;2023-04-28T04:40:09;97503.00;;;9.67;100.00
38852;BME280;24605;50.092;9.182;2023-04-28T04:42:35;97506.50;;;9.83;100.00
38852;BME280;24605;50.092;9.182;2023-04-28T04:45:02;97503.78;;;9.99;100.00
38852;BME280;24605;50.092;9.182;2023-04-28T04:47:28;97501.16;;;10.14;100.00
38852;BME280;24605;50.092;9.182;2023-04-28T04:49:56;97501.50;;;9.96;100.00
38852;BME280;24605;50.092;9.182;2023-04-28T04:52:23;97499.16;;;10.01;100.00
38852;BME280;24605;50.092;9.182;2023-04-28T04:54:49;97490.03;;;9.97;100.00
38852;BME280;24605;50.092;9.182;2023-04-28T04:57:16;97492.31;;;10.15;100.00
38852;BME280;24605;50.092;9.182;2023-04-28T04:59:42;97494.59;;;10.18;100.00
38852;BME280;24605;50.092;9.182;2023-04-28T05:02:09;97495.66;;;10.09;100.00
38852;BME280;24605;50.092;9.182;2023-04-28T05:04:35;97501.09;;;10.23;100.00
38852;BME280;24605;50.092;9.182;2023-04-28T05:07:03;97500.56;;;10.27;100.00
38852;BME280;24605;50.092;9.182;2023-04-28T05:09:29;97499.31;;;10.23;100.00
38852;BME280;24605;50.092;9.182;2023-04-28T05:12:00;97491.78;;;10.20;100.00
38852;BME280;24605;50.092;9.182;2023-04-28T05:14:26;97502.66;;;10.32;100.00
38852;BME280;24605;50.092;9.182;2023-04-28T05:16:53;97498.66;;;10.21;100.00
38852;BME280;24605;50.092;9.182;2023-04-28T05:19:20;97504.13;;;10.34;100.00
38852;BME280;24605;50.092;9.182;2023-04-28T05:21:46;97508.81;;;10.01;100.00
38852;BME280;24605;50.092;9.182;2023-04-28T05:24:14;97507.84;;;10.02;100.00
38852;BME280;24605;50.092;9.182;2023-04-28T05:26:40;97511.13;;;10.19;100.00
38852;BME280;24605;50.092;9.182;2023-04-28T05:29:07;97511.47;;;10.39;100.00
38852;BME280;24605;50.092;9.182;2023-04-28T05:31:33;97520.88;;;10.48;100.00
38852;BME280;24605;50.092;9.182;2023-04-28T05:34:00;97526.13;;;10.48;100.00
38852;BME280;24605;50.092;9.182;2023-04-28T05:36:26;97544.94;;;10.29;100.00
38852;BME280;24605;50.092;9.182;2023-04-28T05:38:53;97535.44;;;10.28;100.00
38852;BME280;24605;50.092;9.182;2023-04-28T05:41:21;97536.16;;;10.22;100.00
38852;BME280;24605;50.092;9.182;2023-04-28T05:43:47;97534.06;;;10.17;100.00
38852;BME280;24605;50.092;9.182;2023-04-28T05:46:15;97527.19;;;10.39;100.00
38852;BME280;24605;50.092;9.182;2023-04-28T05:48:42;97524.38;;;10.41;100.00
38852;BME280;24605;50.092;9.182;2023-04-28T05:51:08;97520.88;;;10.48;100.00
38852;BME280;24605;50.092;9.182;2023-04-28T05:53:35;97519.09;;;10.64;100.00
38852;BME280;24605;50.092;9.182;2023-04-28T05:56:01;97524.34;;;10.64;100.00
38852;BME280;24605;50.092;9.182;2023-04-28T05:58:29;97531.53;;;10.47;100.00
38852;BME280;24605;50.092;9.182;2023-04-28T06:00:56;97542.13;;;10.30;100.00
38852;BME280;24605;50.092;9.182;2023-04-28T06:03:22;97545.00;;;10.21;100.00
38852;BME280;24605;50.092;9.182;2023-04-28T06:05:49;97525.75;;;10.13;100.00
38852;BME280;24605;50.092;9.182;2023-04-28T06:08:16;97520.22;;;10.08;100.00
38852;BME280;24605;50.092;9.182;2023-04-28T06:10:42;97505.06;;;10.18;100.00
38852;BME280;24605;50.092;9.182;2023-04-28T06:13:09;97511.00;;;10.35;100.00
38852;BME280;24605;50.092;9.182;2023-04-28T06:15:37;97523.25;;;10.35;100.00
38852;BME280;24605;50.092;9.182;2023-04-28T06:18:03;97523.56;;;10.40;100.00
38852;BME280;24605;50.092;9.182;2023-04-28T06:20:31;97535.22;;;10.38;100.00
38852;BME280;24605;50.092;9.182;2023-04-28T06:22:58;97529.88;;;10.31;100.00
38852;BME280;24605;50.092;9.182;2023-04-28T06:25:24;97532.91;;;10.19;100.00
38852;BME280;24605;50.092;9.182;2023-04-28T06:27:51;97534.34;;;9.76;100.00
38852;BME280;24605;50.092;9.182;2023-04-28T06:30:19;97524.78;;;9.68;100.00
38852;BME280;24605;50.092;9.182;2023-04-28T06:32:48;97533.66;;;9.59;100.00
38852;BME280;24605;50.092;9.182;2023-04-28T06:35:15;97523.00;;;9.60;100.00
38852;BME280;24605;50.092;9.182;2023-04-28T06:37:42;97502.91;;;9.61;100.00
38852;BME280;24605;50.092;9.182;2023-04-28T06:40:09;97529.44;;;10.04;100.00
38852;BME280;24605;50.092;9.182;2023-04-28T06:42:36;97500.78;;;10.02;100.00
38852;BME280;24605;50.092;9.182;2023-04-28T06:45:03;97518.78;;;10.06;100.00
38852;BME280;24605;50.092;9.182;2023-04-28T06:47:29;97537.78;;;10.23;100.00
38852;BME280;24605;50.092;9.182;2023-04-28T06:49:57;97536.19;;;9.98;100.00
38852;BME280;24605;50.092;9.182;2023-04-28T06:52:23;97540.75;;;10.19;100.00
38852;BME280;24605;50.092;9.182;2023-04-28T06:54:52;97537.56;;;10.09;100.00
38852;BME280;24605;50.092;9.182;2023-04-28T06:57:19;97533.63;;;10.13;100.00
38852;BME280;24605;50.092;9.182;2023-04-28T06:59:45;97506.78;;;10.11;100.00
38852;BME280;24605;50.092;9.182;2023-04-28T07:02:12;97534.41;;;10.37;100.00
38852;BME280;24605;50.092;9.182;2023-04-28T07:04:38;97516.19;;;10.21;100.00
38852;BME280;24605;50.092;9.182;2023-04-28T07:07:06;97543.72;;;10.40;100.00
38852;BME280;24605;50.092;9.182;2023-04-28T07:09:34;97534.97;;;10.47;100.00
38852;BME280;24605;50.092;9.182;2023-04-28T07:12:00;97516.72;;;10.54;100.00
38852;BME280;24605;50.092;9.182;2023-04-28T07:14:28;97537.34;;;10.72;100.00
38852;BME280;24605;50.092;9.182;2023-04-28T07:16:55;97543.19;;;10.44;100.00
38852;BME280;24605;50.092;9.182;2023-04-28T07:19:21;97538.25;;;10.64;100.00
38852;BME280;24605;50.092;9.182;2023-04-28T07:21:48;97523.59;;;10.70;100.00
38852;BME280;24605;50.092;9.182;2023-04-28T07:24:16;97536.81;;;10.77;100.00
38852;BME280;24605;50.092;9.182;2023-04-28T07:26:42;97533.28;;;10.85;100.00
38852;BME280;24605;50.092;9.182;2023-04-28T07:29:09;97542.53;;;10.95;100.00
38852;BME280;24605;50.092;9.182;2023-04-28T07:31:37;97533.28;;;11.15;100.00
38852;BME280;24605;50.092;9.182;2023-04-28T07:34:04;97516.63;;;11.22;100.00
38852;BME280;24605;50.092;9.182;2023-04-28T07:36:30;97496.53;;;11.15;100.00
38852;BME280;24605;50.092;9.182;2023-04-28T07:38:58;97519.59;;;11.34;100.00
38852;BME280;24605;50.092;9.182;2023-04-28T07:41:26;97517.97;;;11.55;100.00
38852;BME280;24605;50.092;9.182;2023-04-28T07:43:53;97514.97;;;11.58;100.00
38852;BME280;24605;50.092;9.182;2023-04-28T07:46:19;97505.59;;;11.49;100.00
38852;BME280;24605;50.092;9.182;2023-04-28T07:48:46;97500.34;;;11.49;100.00
38852;BME280;24605;50.092;9.182;2023-04-28T07:51:13;97499.34;;;11.28;100.00
38852;BME280;24605;50.092;9.182;2023-04-28T07:53:39;97490.31;;;11.16;100.00
38852;BME280;24605;50.092;9.182;2023-04-28T07:56:06;97469.56;;;11.21;100.00
38852;BME280;24605;50.092;9.182;2023-04-28T07:58:34;97494.91;;;11.13;100.00
38852;BME280;24605;50.092;9.182;2023-04-28T08:01:01;97495.84;;;11.42;100.00
38852;BME280;24605;50.092;9.182;2023-04-28T08:03:27;97487.53;;;11.39;100.00
38852;BME280;24605;50.092;9.182;2023-04-28T08:05:54;97453.22;;;11.19;100.00
38852;BME280;24605;50.092;9.182;2023-04-28T08:08:20;97478.72;;;11.47;100.00
38852;BME280;24605;50.092;9.182;2023-04-28T08:10:47;97464.47;;;11.56;100.00
38852;BME280;24605;50.092;9.182;2023-04-28T08:13:15;97474.25;;;11.62;100.00
38852;BME280;24605;50.092;9.182;2023-04-28T08:15:43;97482.16;;;11.69;100.00
38852;BME280;24605;50.092;9.182;2023-04-28T08:18:09;97486.28;;;11.78;100.00
38852;BME280;24605;50.092;9.182;2023-04-28T08:20:36;97488.81;;;11.65;100.00
38852;BME280;24605;50.092;9.182;2023-04-28T08:23:02;97491.00;;;11.61;100.00
38852;BME280;24605;50.092;9.182;2023-04-28T08:25:29;97501.22;;;11.56;100.00
38852;BME280;24605;50.092;9.182;2023-04-28T08:27:55;97495.53;;;11.52;100.00
38852;BME280;24605;50.092;9.182;2023-04-28T08:30:22;97504.47;;;11.58;100.00
38852;BME280;24605;50.092;9.182;2023-04-28T08:32:50;97499.56;;;11.70;100.00
38852;BME280;24605;50.092;9.182;2023-04-28T08:35:17;97505.88;;;11.75;100.00
38852;BME280;24605;50.092;9.182;2023-04-28T08:37:43;97511.75;;;11.99;100.00
38852;BME280;24605;50.092;9.182;2023-04-28T08:40:10;97499.97;;;12.10;100.00
38852;BME280;24605;50.092;9.182;2023-04-28T08:42:37;97507.16;;;12.30;100.00
38852;BME280;24605;50.092;9.182;2023-04-28T08:45:04;97498.44;;;12.51;100.00
38852;BME280;24605;50.092;9.182;2023-04-28T08:47:33;97511.38;;;12.52;100.00
38852;BME280;24605;50.092;9.182;2023-04-28T08:50:03;97516.34;;;12.41;100.00
38852;BME280;24605;50.092;9.182;2023-04-28T08:52:30;97520.91;;;12.25;100.00
38852;BME280;24605;50.092;9.182;2023-04-28T08:54:58;97519.22;;;12.46;100.00
38852;BME280;24605;50.092;9.182;2023-04-28T08:57:26;97518.13;;;12.33;100.00
38852;BME280;24605;50.092;9.182;2023-04-28T08:59:53;97514.03;;;11.81;100.00
38852;BME280;24605;50.092;9.182;2023-04-28T09:02:19;97520.09;;;12.03;100.00
38852;BME280;24605;50.092;9.182;2023-04-28T09:04:46;97521.44;;;11.77;100.00
38852;BME280;24605;50.092;9.182;2023-04-28T09:07:14;97519.03;;;11.97;100.00
38852;BME280;24605;50.092;9.182;2023-04-28T09:09:41;97515.44;;;11.83;100.00
38852;BME280;24605;50.092;9.182;2023-04-28T09:12:09;97517.31;;;11.89;100.00
38852;BME280;24605;50.092;9.182;2023-04-28T09:14:37;97521.78;;;11.89;100.00
38852;BME280;24605;50.092;9.182;2023-04-28T09:17:09;97512.22;;;12.03;100.00
38852;BME280;24605;50.092;9.182;2023-04-28T09:19:36;97514.22;;;12.01;100.00
38852;BME280;24605;50.092;9.182;2023-04-28T09:22:04;97517.66;;;12.23;100.00
38852;BME280;24605;50.092;9.182;2023-04-28T09:24:34;97522.50;;;12.26;100.00
38852;BME280;24605;50.092;9.182;2023-04-28T09:27:02;97520.13;;;12.31;100.00
38852;BME280;24605;50.092;9.182;2023-04-28T09:29:29;97514.53;;;12.41;100.00
38852;BME280;24605;50.092;9.182;2023-04-28T09:32:11;97519.16;;;12.11;100.00
38852;BME280;24605;50.092;9.182;2023-04-28T09:34:41;97515.97;;;12.44;100.00
38852;BME280;24605;50.092;9.182;2023-04-28T09:37:13;97514.81;;;12.53;100.00
38852;BME280;24605;50.092;9.182;2023-04-28T09:39:42;97517.06;;;12.56;100.00
38852;BME280;24605;50.092;9.182;2023-04-28T09:42:09;97523.75;;;12.30;100.00
38852;BME280;24605;50.092;9.182;2023-04-28T09:44:35;97521.38;;;12.64;100.00
38852;BME280;24605;50.092;9.182;2023-04-28T09:47:18;97524.50;;;12.81;100.00
38852;BME280;24605;50.092;9.182;2023-04-28T09:49:52;97525.16;;;12.90;100.00
38852;BME280;24605;50.092;9.182;2023-04-28T09:52:20;97509.19;;;12.91;100.00
38852;BME280;24605;50.092;9.182;2023-04-28T09:54:49;97517.41;;;12.46;100.00
38852;BME280;24605;50.092;9.182;2023-04-28T09:57:16;97521.28;;;12.85;100.00
38852;BME280;24605;50.092;9.182;2023-04-28T09:59:46;97517.72;;;13.00;100.00
38852;BME280;24605;50.092;9.182;2023-04-28T10:02:13;97509.94;;;13.33;100.00
38852;BME280;24605;50.092;9.182;2023-04-28T10:04:41;97512.59;;;13.33;100.00
38852;BME280;24605;50.092;9.182;2023-04-28T10:07:10;97521.59;;;13.53;100.00
38852;BME280;24605;50.092;9.182;2023-04-28T10:09:37;97525.84;;;13.54;100.00
38852;BME280;24605;50.092;9.182;2023-04-28T10:12:05;97526.72;;;13.19;100.00
38852;BME280;24605;50.092;9.182;2023-04-28T10:14:33;97526.63;;;13.41;100.00
38852;BME280;24605;50.092;9.182;2023-04-28T10:17:00;97526.25;;;13.09;100.00
38852;BME280;24605;50.092;9.182;2023-04-28T10:19:27;97528.13;;;13.22;100.00
38852;BME280;24605;50.092;9.182;2023-04-28T10:22:02;97529.28;;;13.47;100.00
38852;BME280;24605;50.092;9.182;2023-04-28T10:24:31;97522.63;;;13.10;100.00
38852;BME280;24605;50.092;9.182;2023-04-28T10:27:03;97525.50;;;13.22;100.00
38852;BME280;24605;50.092;9.182;2023-04-28T10:29:32;97532.28;;;12.96;100.00
38852;BME280;24605;50.092;9.182;2023-04-28T10:32:20;97526.47;;;13.07;100.00
38852;BME280;24605;50.092;9.182;2023-04-28T10:34:47;97530.53;;;13.10;100.00
38852;BME280;24605;50.092;9.182;2023-04-28T10:37:14;97526.84;;;13.04;100.00
38852;BME280;24605;50.092;9.182;2023-04-28T10:40:30;97479.53;;;13.18;100.00
38852;BME280;24605;50.092;9.182;2023-04-28T10:42:56;97511.50;;;13.70;100.00
38852;BME280;24605;50.092;9.182;2023-04-28T10:48:53;97518.47;;;13.36;100.00
38852;BME280;24605;50.092;9.182;2023-04-28T10:51:30;97521.34;;;13.41;100.00
38852;BME280;24605;50.092;9.182;2023-04-28T10:54:10;97515.56;;;13.66;100.00
38852;BME280;24605;50.092;9.182;2023-04-28T10:56:41;97516.19;;;13.81;100.00
38852;BME280;24605;50.092;9.182;2023-04-28T10:59:28;97512.13;;;13.85;100.00
38852;BME280;24605;50.092;9.182;2023-04-28T11:05:11;97503.84;;;14.22;100.00
38852;BME280;24605;50.092;9.182;2023-04-28T11:07:38;97512.34;;;14.24;100.00
38852;BME280;24605;50.092;9.182;2023-04-28T11:10:05;97505.06;;;14.26;100.00
38852;BME280;24605;50.092;9.182;2023-04-28T11:12:32;97504.63;;;14.42;100.00
38852;BME280;24605;50.092;9.182;2023-04-28T11:15:10;97510.34;;;14.66;100.00
38852;BME280;24605;50.092;9.182;2023-04-28T11:17:39;97505.66;;;14.41;100.00
38852;BME280;24605;50.092;9.182;2023-04-28T11:20:12;97510.31;;;14.46;100.00
38852;BME280;24605;50.092;9.182;2023-04-28T11:22:39;97478.88;;;14.38;100.00
38852;BME280;24605;50.092;9.182;2023-04-28T11:25:07;97509.31;;;14.34;100.00
38852;BME280;24605;50.092;9.182;2023-04-28T11:27:33;97511.34;;;14.45;100.00
38852;BME280;24605;50.092;9.182;2023-04-28T11:30:01;97506.09;;;14.45;100.00
38852;BME280;24605;50.092;9.182;2023-04-28T11:32:30;97507.50;;;14.54;100.00
38852;BME280;24605;50.092;9.182;2023-04-28T11:34:57;97511.13;;;14.80;100.00
38852;BME280;24605;50.092;9.182;2023-04-28T11:37:25;97513.88;;;14.99;100.00
38852;BME280;24605;50.092;9.182;2023-04-28T11:39:52;97508.50;;;15.26;100.00
38852;BME280;24605;50.092;9.182;2023-04-28T11:42:18;97503.75;;;15.87;100.00
38852;BME280;24605;50.092;9.182;2023-04-28T11:44:49;97504.50;;;16.44;100.00
38852;BME280;24605;50.092;9.182;2023-04-28T11:47:27;97512.56;;;16.06;100.00
38852;BME280;24605;50.092;9.182;2023-04-28T11:49:54;97514.53;;;15.85;100.00
38852;BME280;24605;50.092;9.182;2023-04-28T11:52:20;97490.34;;;16.32;100.00
38852;BME280;24605;50.092;9.182;2023-04-28T11:54:53;97508.22;;;16.62;100.00
38852;BME280;24605;50.092;9.182;2023-04-28T11:57:20;97508.59;;;16.84;100.00
38852;BME280;24605;50.092;9.182;2023-04-28T11:59:47;97495.38;;;17.03;100.00
38852;BME280;24605;50.092;9.182;2023-04-28T12:02:14;97496.56;;;17.68;100.00
38852;BME280;24605;50.092;9.182;2023-04-28T12:04:42;97493.16;;;17.79;100.00
38852;BME280;24605;50.092;9.182;2023-04-28T12:07:11;97494.41;;;18.07;100.00
38852;BME280;24605;50.092;9.182;2023-04-28T12:09:39;97498.84;;;17.95;100.00
38852;BME280;24605;50.092;9.182;2023-04-28T12:12:08;97497.34;;;16.89;100.00
38852;BME280;24605;50.092;9.182;2023-04-28T12:14:54;97499.44;;;17.05;100.00
38852;BME280;24605;50.092;9.182;2023-04-28T12:17:24;97498.53;;;17.12;100.00
38852;BME280;24605;50.092;9.182;2023-04-28T12:19:51;97498.59;;;17.23;100.00
38852;BME280;24605;50.092;9.182;2023-04-28T12:22:18;97501.75;;;16.76;100.00
38852;BME280;24605;50.092;9.182;2023-04-28T12:24:44;97498.66;;;16.80;100.00
38852;BME280;24605;50.092;9.182;2023-04-28T12:27:16;97493.50;;;16.48;100.00
38852;BME280;24605;50.092;9.182;2023-04-28T12:29:45;97491.34;;;17.00;100.00
38852;BME280;24605;50.092;9.182;2023-04-28T12:32:13;97491.09;;;17.81;100.00
38852;BME280;24605;50.092;9.182;2023-04-28T12:34:41;97443.56;;;18.10;100.00
38852;BME280;24605;50.092;9.182;2023-04-28T12:37:08;97489.47;;;18.58;98.88
38852;BME280;24605;50.092;9.182;2023-04-28T12:39:35;97492.81;;;18.66;97.95
38852;BME280;24605;50.092;9.182;2023-04-28T12:42:02;97468.06;;;17.94;100.00
38852;BME280;24605;50.092;9.182;2023-04-28T12:44:32;97495.38;;;17.94;100.00
38852;BME280;24605;50.092;9.182;2023-04-28T12:47:02;97430.63;;;17.17;100.00
38852;BME280;24605;50.092;9.182;2023-04-28T12:49:29;97481.09;;;17.53;100.00
38852;BME280;24605;50.092;9.182;2023-04-28T12:51:55;97482.56;;;17.49;100.00
38852;BME280;24605;50.092;9.182;2023-04-28T12:54:22;97471.94;;;17.79;100.00
38852;BME280;24605;50.092;9.182;2023-04-28T12:56:48;97478.25;;;17.36;100.00
38852;BME280;24605;50.092;9.182;2023-04-28T12:59:15;97471.47;;;17.10;100.00
38852;BME280;24605;50.092;9.182;2023-04-28T13:01:43;97479.25;;;17.23;100.00